sensor_id;sensor_type;location;lat;lon;timestamp;temperature;humidity
3923;DHT22;1976;51.694;6.256;2023-11-21T00:00:55;9.80;99.90
3923;DHT22;1976;51.694;6.256;2023-11-21T00:03:20;11.30;99.90
3923;DHT22;1976;51.694;6.256;2023-11-21T00:05:49;9.80;99.90
3923;DHT22;1976;51.694;6.256;2023-11-21T00:08:14;9.80;99.90
3923;DHT22;1976;51.694;6.256;2023-11-21T00:13:06;9.70;99.90
3923;DHT22;1976;51.694;6.256;2023-11-21T00:15:31;13.00;99.90
3923;DHT22;1976;51.694;6.256;2023-11-21T00:17:57;9.50;99.90
3923;DHT22;1976;51.694;6.256;2023-11-21T00:20:22;9.60;99.90
3923;DHT22;1976;51.694;6.256;2023-11-21T00:22:48;9.60;99.90
3923;DHT22;1976;51.694;6.256;2023-11-21T00:25:13;9.60;99.90
3923;DHT22;1976;51.694;6.256;2023-11-21T00:27:41;9.70;99.90
3923;DHT22;1976;51.694;6.256;2023-11-21T00:30:07;9.70;99.90
3923;DHT22;1976;51.694;6.256;2023-11-21T00:32:35;9.70;99.90
3923;DHT22;1976;51.694;6.256;2023-11-21T00:35:01;9.80;99.90
3923;DHT22;1976;51.694;6.256;2023-11-21T00:37:27;9.80;99.90
3923;DHT22;1976;51.694;6.256;2023-11-21T00:39:52;9.80;99.90
3923;DHT22;1976;51.694;6.256;2023-11-21T00:42:18;11.10;99.90
3923;DHT22;1976;51.694;6.256;2023-11-21T00:44:43;12.80;99.90
3923;DHT22;1976;51.694;6.256;2023-11-21T00:47:09;13.40;99.90
3923;DHT22;1976;51.694;6.256;2023-11-21T00:49:35;11.40;99.90
3923;DHT22;1976;51.694;6.256;2023-11-21T00:52:00;10.10;99.90
3923;DHT22;1976;51.694;6.256;2023-11-21T00:54:27;11.70;99.90
3923;DHT22;1976;51.694;6.256;2023-11-21T00:56:53;9.80;99.90
3923;DHT22;1976;51.694;6.256;2023-11-21T00:59:18;9.80;99.90
3923;DHT22;1976;51.694;6.256;2023-11-21T01:01:44;12.90;99.90
3923;DHT22;1976;51.694;6.256;2023-11-21T01:04:10;12.80;99.90
3923;DHT22;1976;51.694;6.256;2023-11-21T01:06:36;9.90;99.90
3923;DHT22;1976;51.694;6.256;2023-11-21T01:09:01;12.20;99.90
3923;DHT22;1976;51.694;6.256;2023-11-21T01:11:33;10.50;99.90
3923;DHT22;1976;51.694;6.256;2023-11-21T01:14:01;9.80;99.90
3923;DHT22;1976;51.694;6.256;2023-11-21T01:16:29;9.80;99.90
3923;DHT22;1976;51.694;6.256;2023-11-21T01:18:55;9.80;99.90
3923;DHT22;1976;51.694;6.256;2023-11-21T01:21:20;9.70;99.90
3923;DHT22;1976;51.694;6.256;2023-11-21T01:23:47;9.70;99.90
3923;DHT22;1976;51.694;6.256;2023-11-21T01:26:13;9.70;99.90
3923;DHT22;1976;51.694;6.256;2023-11-21T01:28:39;9.70;99.90
3923;DHT22;1976;51.694;6.256;2023-11-21T01:31:05;9.80;99.90
3923;DHT22;1976;51.694;6.256;2023-11-21T01:33:32;9.80;99.90
3923;DHT22;1976;51.694;6.256;2023-11-21T01:35:59;9.80;99.90
3923;DHT22;1976;51.694;6.256;2023-11-21T01:38:25;9.90;99.90
3923;DHT22;1976;51.694;6.256;2023-11-21T01:40:51;9.80;99.90
3923;DHT22;1976;51.694;6.256;2023-11-21T01:43:17;9.90;99.90
3923;DHT22;1976;51.694;6.256;2023-11-21T01:45:42;9.80;99.90
3923;DHT22;1976;51.694;6.256;2023-11-21T01:48:10;9.80;99.90
3923;DHT22;1976;51.694;6.256;2023-11-21T01:50:36;9.90;99.90
3923;DHT22;1976;51.694;6.256;2023-11-21T01:53:02;9.90;99.90
3923;DHT22;1976;51.694;6.256;2023-11-21T01:55:29;9.90;99.90
3923;DHT22;1976;51.694;6.256;2023-11-21T01:57:56;9.90;99.90
3923;DHT22;1976;51.694;6.256;2023-11-21T02:00:22;11.00;99.90
3923;DHT22;1976;51.694;6.256;2023-11-21T02:02:49;9.90;99.90
3923;DHT22;1976;51.694;6.256;2023-11-21T02:05:16;9.90;99.90
3923;DHT22;1976;51.694;6.256;2023-11-21T02:07:46;9.90;99.90
3923;DHT22;1976;51.694;6.256;2023-11-21T02:10:15;9.90;99.90
3923;DHT22;1976;51.694;6.256;2023-11-21T02:12:41;9.90;99.90
3923;DHT22;1976;51.694;6.256;2023-11-21T02:15:09;10.00;99.90
3923;DHT22;1976;51.694;6.256;2023-11-21T02:17:41;9.90;99.90
3923;DHT22;1976;51.694;6.256;2023-11-21T02:20:13;9.90;99.90
3923;DHT22;1976;51.694;6.256;2023-11-21T02:22:50;9.90;99.90
3923;DHT22;1976;51.694;6.256;2023-11-21T02:25:24;9.90;99.90
3923;DHT22;1976;51.694;6.256;2023-11-21T02:27:50;9.90;99.90
3923;DHT22;1976;51.694;6.256;2023-11-21T02:30:17;9.80;99.90
3923;DHT22;1976;51.694;6.256;2023-11-21T02:32:44;9.80;99.90
3923;DHT22;1976;51.694;6.256;2023-11-21T02:35:10;9.80;99.90
3923;DHT22;1976;51.694;6.256;2023-11-21T02:37:37;9.80;99.90
3923;DHT22;1976;51.694;6.256;2023-11-21T02:40:04;9.70;99.90
3923;DHT22;1976;51.694;6.256;2023-11-21T02:42:35;9.80;99.90
3923;DHT22;1976;51.694;6.256;2023-11-21T02:45:01;9.80;99.90
3923;DHT22;1976;51.694;6.256;2023-11-21T02:47:26;9.80;99.90
3923;DHT22;1976;51.694;6.256;2023-11-21T02:49:52;9.80;99.90
3923;DHT22;1976;51.694;6.256;2023-11-21T02:52:18;9.80;99.90
3923;DHT22;1976;51.694;6.256;2023-11-21T02:54:45;9.80;99.90
3923;DHT22;1976;51.694;6.256;2023-11-21T02:57:11;9.80;99.90
3923;DHT22;1976;51.694;6.256;2023-11-21T02:59:36;9.80;99.90
3923;DHT22;1976;51.694;6.256;2023-11-21T03:02:02;9.80;99.90
3923;DHT22;1976;51.694;6.256;2023-11-21T03:04:28;9.80;99.90
3923;DHT22;1976;51.694;6.256;2023-11-21T03:06:54;9.80;99.90
3923;DHT22;1976;51.694;6.256;2023-11-21T03:09:20;9.80;99.90
3923;DHT22;1976;51.694;6.256;2023-11-21T03:11:46;9.80;99.90
3923;DHT22;1976;51.694;6.256;2023-11-21T03:14:12;9.80;99.90
3923;DHT22;1976;51.694;6.256;2023-11-21T03:19:04;9.70;99.90
3923;DHT22;1976;51.694;6.256;2023-11-21T03:21:30;9.80;99.90
3923;DHT22;1976;51.694;6.256;2023-11-21T03:23:56;9.80;99.90
3923;DHT22;1976;51.694;6.256;2023-11-21T03:26:22;9.80;99.90
3923;DHT22;1976;51.694;6.256;2023-11-21T03:28:48;9.90;99.90
3923;DHT22;1976;51.694;6.256;2023-11-21T03:31:15;9.90;99.90
3923;DHT22;1976;51.694;6.256;2023-11-21T03:33:42;9.90;99.90
3923;DHT22;1976;51.694;6.256;2023-11-21T03:36:09;9.70;99.90
3923;DHT22;1976;51.694;6.256;2023-11-21T03:38:36;9.70;99.90
3923;DHT22;1976;51.694;6.256;2023-11-21T03:41:03;9.70;99.90
3923;DHT22;1976;51.694;6.256;2023-11-21T03:43:30;9.60;99.90
3923;DHT22;1976;51.694;6.256;2023-11-21T03:45:56;9.60;99.90
3923;DHT22;1976;51.694;6.256;2023-11-21T03:48:22;9.60;99.90
3923;DHT22;1976;51.694;6.256;2023-11-21T03:50:48;9.70;99.90
3923;DHT22;1976;51.694;6.256;2023-11-21T03:53:14;9.80;99.90
3923;DHT22;1976;51.694;6.256;2023-11-21T03:55:39;12.90;99.90
3923;DHT22;1976;51.694;6.256;2023-11-21T03:58:05;11.40;99.90
3923;DHT22;1976;51.694;6.256;2023-11-21T04:00:31;9.90;99.90
3923;DHT22;1976;51.694;6.256;2023-11-21T04:02:57;9.70;99.90
3923;DHT22;1976;51.694;6.256;2023-11-21T04:05:23;9.70;99.90
3923;DHT22;1976;51.694;6.256;2023-11-21T04:07:52;9.70;99.90
3923;DHT22;1976;51.694;6.256;2023-11-21T04:10:18;9.70;99.90
3923;DHT22;1976;51.694;6.256;2023-11-21T04:12:43;9.60;99.90
3923;DHT22;1976;51.694;6.256;2023-11-21T04:15:10;12.60;99.90
3923;DHT22;1976;51.694;6.256;2023-11-21T04:17:37;9.50;99.90
3923;DHT22;1976;51.694;6.256;2023-11-21T04:20:04;11.00;99.90
3923;DHT22;1976;51.694;6.256;2023-11-21T04:22:41;9.40;99.90
3923;DHT22;1976;51.694;6.256;2023-11-21T04:25:24;9.50;99.90
3923;DHT22;1976;51.694;6.256;2023-11-21T04:27:50;11.20;99.90
3923;DHT22;1976;51.694;6.256;2023-11-21T04:30:16;9.50;99.90
3923;DHT22;1976;51.694;6.256;2023-11-21T04:32:42;9.50;99.90
3923;DHT22;1976;51.694;6.256;2023-11-21T04:35:08;9.60;99.90
3923;DHT22;1976;51.694;6.256;2023-11-21T04:37:36;9.60;99.90
3923;DHT22;1976;51.694;6.256;2023-11-21T04:40:02;9.60;99.90
3923;DHT22;1976;51.694;6.256;2023-11-21T04:42:35;9.50;99.90
3923;DHT22;1976;51.694;6.256;2023-11-21T04:45:01;9.40;99.90
3923;DHT22;1976;51.694;6.256;2023-11-21T04:47:27;9.40;99.90
3923;DHT22;1976;51.694;6.256;2023-11-21T04:49:52;9.40;99.90
3923;DHT22;1976;51.694;6.256;2023-11-21T04:54:45;9.30;99.90
3923;DHT22;1976;51.694;6.256;2023-11-21T04:57:11;9.40;99.90
3923;DHT22;1976;51.694;6.256;2023-11-21T04:59:37;9.20;99.90
3923;DHT22;1976;51.694;6.256;2023-11-21T05:02:03;9.20;99.90
3923;DHT22;1976;51.694;6.256;2023-11-21T05:04:30;9.20;99.90
3923;DHT22;1976;51.694;6.256;2023-11-21T05:06:56;9.30;99.90
3923;DHT22;1976;51.694;6.256;2023-11-21T05:09:22;9.10;99.90
3923;DHT22;1976;51.694;6.256;2023-11-21T05:11:47;10.40;99.90
3923;DHT22;1976;51.694;6.256;2023-11-21T05:14:13;11.40;99.90
3923;DHT22;1976;51.694;6.256;2023-11-21T05:16:39;10.60;99.90
3923;DHT22;1976;51.694;6.256;2023-11-21T05:19:05;9.40;99.90
3923;DHT22;1976;51.694;6.256;2023-11-21T05:21:32;9.40;99.90
3923;DHT22;1976;51.694;6.256;2023-11-21T05:23:58;9.40;99.90
3923;DHT22;1976;51.694;6.256;2023-11-21T05:26:24;9.50;99.90
3923;DHT22;1976;51.694;6.256;2023-11-21T05:28:50;9.50;99.90
3923;DHT22;1976;51.694;6.256;2023-11-21T05:31:15;9.40;99.90
3923;DHT22;1976;51.694;6.256;2023-11-21T05:33:41;11.40;99.90
3923;DHT22;1976;51.694;6.256;2023-11-21T05:36:07;9.40;99.90
3923;DHT22;1976;51.694;6.256;2023-11-21T05:38:34;9.50;99.90
3923;DHT22;1976;51.694;6.256;2023-11-21T05:41:01;9.50;99.90
3923;DHT22;1976;51.694;6.256;2023-11-21T05:43:27;9.50;99.90
3923;DHT22;1976;51.694;6.256;2023-11-21T05:45:55;9.40;99.90
3923;DHT22;1976;51.694;6.256;2023-11-21T05:48:21;9.50;99.90
3923;DHT22;1976;51.694;6.256;2023-11-21T05:50:46;9.50;99.90
3923;DHT22;1976;51.694;6.256;2023-11-21T05:53:14;9.50;99.90
3923;DHT22;1976;51.694;6.256;2023-11-21T05:55:41;9.50;99.90
3923;DHT22;1976;51.694;6.256;2023-11-21T05:58:08;9.50;99.90
3923;DHT22;1976;51.694;6.256;2023-11-21T06:00:33;9.50;99.90
3923;DHT22;1976;51.694;6.256;2023-11-21T06:02:59;9.60;99.90
3923;DHT22;1976;51.694;6.256;2023-11-21T06:05:26;9.50;99.90
3923;DHT22;1976;51.694;6.256;2023-11-21T06:07:53;9.60;99.90
3923;DHT22;1976;51.694;6.256;2023-11-21T06:10:23;9.60;99.90
3923;DHT22;1976;51.694;6.256;2023-11-21T06:12:49;9.60;99.90
3923;DHT22;1976;51.694;6.256;2023-11-21T06:15:15;9.60;99.90
3923;DHT22;1976;51.694;6.256;2023-11-21T06:17:44;9.70;99.90
3923;DHT22;1976;51.694;6.256;2023-11-21T06:20:14;10.70;99.90
3923;DHT22;1976;51.694;6.256;2023-11-21T06:22:42;9.70;99.90
3923;DHT22;1976;51.694;6.256;2023-11-21T06:25:08;9.70;99.90
3923;DHT22;1976;51.694;6.256;2023-11-21T06:27:42;9.70;99.90
3923;DHT22;1976;51.694;6.256;2023-11-21T06:30:08;9.60;99.90
3923;DHT22;1976;51.694;6.256;2023-11-21T06:32:38;9.60;99.90
3923;DHT22;1976;51.694;6.256;2023-11-21T06:35:05;9.60;99.90
3923;DHT22;1976;51.694;6.256;2023-11-21T06:37:31;9.60;99.90
3923;DHT22;1976;51.694;6.256;2023-11-21T06:39:58;9.60;99.90
3923;DHT22;1976;51.694;6.256;2023-11-21T06:42:25;10.10;99.90
3923;DHT22;1976;51.694;6.256;2023-11-21T06:44:51;9.60;99.90
3923;DHT22;1976;51.694;6.256;2023-11-21T06:47:23;9.60;99.90
3923;DHT22;1976;51.694;6.256;2023-11-21T06:49:52;9.60;99.90
3923;DHT22;1976;51.694;6.256;2023-11-21T06:52:18;10.70;99.90
3923;DHT22;1976;51.694;6.256;2023-11-21T06:54:44;12.40;99.90
3923;DHT22;1976;51.694;6.256;2023-11-21T06:57:11;9.70;99.90
3923;DHT22;1976;51.694;6.256;2023-11-21T06:59:36;11.70;99.90
3923;DHT22;1976;51.694;6.256;2023-11-21T07:02:02;10.80;99.90
3923;DHT22;1976;51.694;6.256;2023-11-21T07:04:28;9.60;99.90
3923;DHT22;1976;51.694;6.256;2023-11-21T07:06:54;9.70;99.90
3923;DHT22;1976;51.694;6.256;2023-11-21T07:09:20;9.70;99.90
3923;DHT22;1976;51.694;6.256;2023-11-21T07:11:54;9.60;99.90
3923;DHT22;1976;51.694;6.256;2023-11-21T07:14:20;9.70;99.90
3923;DHT22;1976;51.694;6.256;2023-11-21T07:16:47;9.60;99.90
3923;DHT22;1976;51.694;6.256;2023-11-21T07:19:13;9.70;99.90
3923;DHT22;1976;51.694;6.256;2023-11-21T07:21:40;9.60;99.90
3923;DHT22;1976;51.694;6.256;2023-11-21T07:24:07;9.50;99.90
3923;DHT22;1976;51.694;6.256;2023-11-21T07:26:34;9.40;99.90
3923;DHT22;1976;51.694;6.256;2023-11-21T07:29:03;9.30;99.90
3923;DHT22;1976;51.694;6.256;2023-11-21T07:31:29;9.30;99.90
3923;DHT22;1976;51.694;6.256;2023-11-21T07:33:55;9.30;99.90
3923;DHT22;1976;51.694;6.256;2023-11-21T07:36:23;9.30;99.90
3923;DHT22;1976;51.694;6.256;2023-11-21T07:38:50;9.30;99.90
3923;DHT22;1976;51.694;6.256;2023-11-21T07:41:16;9.20;99.90
3923;DHT22;1976;51.694;6.256;2023-11-21T07:43:44;9.20;99.90
3923;DHT22;1976;51.694;6.256;2023-11-21T07:46:11;9.20;99.90
3923;DHT22;1976;51.694;6.256;2023-11-21T07:48:38;9.20;99.90
3923;DHT22;1976;51.694;6.256;2023-11-21T07:51:05;9.30;99.90
3923;DHT22;1976;51.694;6.256;2023-11-21T07:53:31;9.40;99.90
3923;DHT22;1976;51.694;6.256;2023-11-21T07:58:30;9.30;99.90
3923;DHT22;1976;51.694;6.256;2023-11-21T08:00:56;9.30;99.90
3923;DHT22;1976;51.694;6.256;2023-11-21T08:03:22;9.40;99.90
3923;DHT22;1976;51.694;6.256;2023-11-21T08:05:48;9.40;99.90
3923;DHT22;1976;51.694;6.256;2023-11-21T08:08:14;9.50;99.90
3923;DHT22;1976;51.694;6.256;2023-11-21T08:10:40;9.40;99.90
3923;DHT22;1976;51.694;6.256;2023-11-21T08:13:07;9.40;99.90
3923;DHT22;1976;51.694;6.256;2023-11-21T08:15:34;9.40;99.90
3923;DHT22;1976;51.694;6.256;2023-11-21T08:18:02;9.40;99.90
3923;DHT22;1976;51.694;6.256;2023-11-21T08:20:29;9.30;99.90
3923;DHT22;1976;51.694;6.256;2023-11-21T08:22:55;9.40;99.90
3923;DHT22;1976;51.694;6.256;2023-11-21T08:25:22;9.40;99.90
3923;DHT22;1976;51.694;6.256;2023-11-21T08:27:48;9.30;99.90
3923;DHT22;1976;51.694;6.256;2023-11-21T08:30:15;9.40;99.90
3923;DHT22;1976;51.694;6.256;2023-11-21T08:32:42;9.30;99.90
3923;DHT22;1976;51.694;6.256;2023-11-21T08:35:08;9.30;99.90
3923;DHT22;1976;51.694;6.256;2023-11-21T08:37:34;9.30;99.90
3923;DHT22;1976;51.694;6.256;2023-11-21T08:40:05;9.30;99.90
3923;DHT22;1976;51.694;6.256;2023-11-21T08:42:35;9.30;99.90
3923;DHT22;1976;51.694;6.256;2023-11-21T08:45:01;9.40;99.90
3923;DHT22;1976;51.694;6.256;2023-11-21T08:47:27;9.40;99.90
3923;DHT22;1976;51.694;6.256;2023-11-21T08:49:53;9.40;99.90
3923;DHT22;1976;51.694;6.256;2023-11-21T08:52:19;9.40;99.90
3923;DHT22;1976;51.694;6.256;2023-11-21T08:54:49;9.20;99.90
3923;DHT22;1976;51.694;6.256;2023-11-21T08:57:24;9.30;99.90
3923;DHT22;1976;51.694;6.256;2023-11-21T08:59:50;9.50;99.90
3923;DHT22;1976;51.694;6.256;2023-11-21T09:02:25;9.50;99.90
3923;DHT22;1976;51.694;6.256;2023-11-21T09:04:51;9.80;99.90
3923;DHT22;1976;51.694;6.256;2023-11-21T09:07:20;9.80;99.90
3923;DHT22;1976;51.694;6.256;2023-11-21T09:09:47;9.90;99.90
3923;DHT22;1976;51.694;6.256;2023-11-21T09:12:13;9.90;99.90
3923;DHT22;1976;51.694;6.256;2023-11-21T09:14:39;10.00;99.90
3923;DHT22;1976;51.694;6.256;2023-11-21T09:17:06;10.00;99.90
3923;DHT22;1976;51.694;6.256;2023-11-21T09:19:39;9.90;99.90
3923;DHT22;1976;51.694;6.256;2023-11-21T09:22:05;10.00;99.90
3923;DHT22;1976;51.694;6.256;2023-11-21T09:24:32;10.00;99.90
3923;DHT22;1976;51.694;6.256;2023-11-21T09:26:58;10.00;99.90
3923;DHT22;1976;51.694;6.256;2023-11-21T09:29:28;10.00;99.90
3923;DHT22;1976;51.694;6.256;2023-11-21T09:31:57;9.90;99.90
3923;DHT22;1976;51.694;6.256;2023-11-21T09:34:27;9.90;99.90
3923;DHT22;1976;51.694;6.256;2023-11-21T09:36:53;9.90;99.90
3923;DHT22;1976;51.694;6.256;2023-11-21T09:39:19;9.90;99.90
3923;DHT22;1976;51.694;6.256;2023-11-21T09:41:52;10.10;99.90
3923;DHT22;1976;51.694;6.256;2023-11-21T09:44:34;10.10;99.90
3923;DHT22;1976;51.694;6.256;2023-11-21T09:47:02;10.10;99.90
3923;DHT22;1976;51.694;6.256;2023-11-21T09:49:28;10.30;99.90
3923;DHT22;1976;51.694;6.256;2023-11-21T09:52:01;10.40;99.90
3923;DHT22;1976;51.694;6.256;2023-11-21T09:54:32;10.40;99.90
3923;DHT22;1976;51.694;6.256;2023-11-21T09:57:00;10.50;99.90
3923;DHT22;1976;51.694;6.256;2023-11-21T09:59:30;10.50;99.90
3923;DHT22;1976;51.694;6.256;2023-11-21T10:04:26;10.70;99.90
3923;DHT22;1976;51.694;6.256;2023-11-21T10:06:53;11.00;99.90
3923;DHT22;1976;51.694;6.256;2023-11-21T10:09:21;11.00;99.90
3923;DHT22;1976;51.694;6.256;2023-11-21T10:11:49;11.10;99.90
3923;DHT22;1976;51.694;6.256;2023-11-21T10:14:19;11.10;99.90
3923;DHT22;1976;51.694;6.256;2023-11-21T10:16:47;11.10;99.90
3923;DHT22;1976;51.694;6.256;2023-11-21T10:21:42;11.20;99.90
3923;DHT22;1976;51.694;6.256;2023-11-21T10:24:08;11.30;99.90
3923;DHT22;1976;51.694;6.256;2023-11-21T10:26:34;11.30;99.90
3923;DHT22;1976;51.694;6.256;2023-11-21T10:29:03;11.40;99.90
3923;DHT22;1976;51.694;6.256;2023-11-21T10:31:32;11.40;99.90
3923;DHT22;1976;51.694;6.256;2023-11-21T10:34:18;11.40;99.90
3923;DHT22;1976;51.694;6.256;2023-11-21T10:36:45;11.40;99.90
3923;DHT22;1976;51.694;6.256;2023-11-21T10:39:17;11.40;99.90
3923;DHT22;1976;51.694;6.256;2023-11-21T10:41:48;11.50;99.90
3923;DHT22;1976;51.694;6.256;2023-11-21T10:44:15;11.40;99.90
3923;DHT22;1976;51.694;6.256;2023-11-21T10:46:53;11.50;99.90
3923;DHT22;1976;51.694;6.256;2023-11-21T10:49:22;11.50;99.90
3923;DHT22;1976;51.694;6.256;2023-11-21T10:51:50;11.50;99.90
3923;DHT22;1976;51.694;6.256;2023-11-21T10:54:24;11.60;99.90
3923;DHT22;1976;51.694;6.256;2023-11-21T10:56:57;11.60;99.90
3923;DHT22;1976;51.694;6.256;2023-11-21T10:59:29;11.70;99.90
3923;DHT22;1976;51.694;6.256;2023-11-21T11:01:58;11.70;99.90
3923;DHT22;1976;51.694;6.256;2023-11-21T11:04:27;11.90;99.90
3923;DHT22;1976;51.694;6.256;2023-11-21T11:06:56;11.90;99.90
3923;DHT22;1976;51.694;6.256;2023-11-21T11:09:23;11.90;99.90
3923;DHT22;1976;51.694;6.256;2023-11-21T11:11:48;12.00;99.90
3923;DHT22;1976;51.694;6.256;2023-11-21T11:14:15;12.10;99.90
3923;DHT22;1976;51.694;6.256;2023-11-21T11:16:41;12.20;99.90
3923;DHT22;1976;51.694;6.256;2023-11-21T11:19:08;12.30;99.90
3923;DHT22;1976;51.694;6.256;2023-11-21T11:21:46;12.30;99.90
3923;DHT22;1976;51.694;6.256;2023-11-21T11:36:02;12.50;99.90
3923;DHT22;1976;51.694;6.256;2023-11-21T11:38:33;12.60;99.90
3923;DHT22;1976;51.694;6.256;2023-11-21T11:41:02;12.70;99.90
3923;DHT22;1976;51.694;6.256;2023-11-21T11:43:31;12.80;99.90
3923;DHT22;1976;51.694;6.256;2023-11-21T11:46:10;12.90;99.90
3923;DHT22;1976;51.694;6.256;2023-11-21T11:48:40;13.10;99.90
3923;DHT22;1976;51.694;6.256;2023-11-21T11:51:10;13.20;99.90
3923;DHT22;1976;51.694;6.256;2023-11-21T11:53:40;13.40;99.90
3923;DHT22;1976;51.694;6.256;2023-11-21T11:56:29;13.50;99.90
3923;DHT22;1976;51.694;6.256;2023-11-21T11:59:03;13.60;99.90
3923;DHT22;1976;51.694;6.256;2023-11-21T12:01:32;13.70;99.90
3923;DHT22;1976;51.694;6.256;2023-11-21T12:06:46;13.80;99.90
3923;DHT22;1976;51.694;6.256;2023-11-21T12:09:24;13.80;99.90
3923;DHT22;1976;51.694;6.256;2023-11-21T12:11:52;13.80;99.90
3923;DHT22;1976;51.694;6.256;2023-11-21T12:14:18;13.80;99.90
3923;DHT22;1976;51.694;6.256;2023-11-21T12:16:44;13.80;99.90
3923;DHT22;1976;51.694;6.256;2023-11-21T12:21:36;13.60;99.90
3923;DHT22;1976;51.694;6.256;2023-11-21T12:24:02;13.60;99.90
3923;DHT22;1976;51.694;6.256;2023-11-21T12:26:28;13.50;99.90
3923;DHT22;1976;51.694;6.256;2023-11-21T12:28:54;13.40;99.90
3923;DHT22;1976;51.694;6.256;2023-11-21T12:31:21;13.40;99.90
3923;DHT22;1976;51.694;6.256;2023-11-21T12:33:47;13.30;99.90
3923;DHT22;1976;51.694;6.256;2023-11-21T12:36:13;13.30;99.90
3923;DHT22;1976;51.694;6.256;2023-11-21T12:38:38;13.20;99.90
3923;DHT22;1976;51.694;6.256;2023-11-21T12:41:05;13.10;99.90
3923;DHT22;1976;51.694;6.256;2023-11-21T12:43:32;13.00;99.90
3923;DHT22;1976;51.694;6.256;2023-11-21T12:46:10;13.10;99.90
3923;DHT22;1976;51.694;6.256;2023-11-21T12:48:41;13.20;99.90
3923;DHT22;1976;51.694;6.256;2023-11-21T12:51:10;13.40;99.90
3923;DHT22;1976;51.694;6.256;2023-11-21T12:53:37;13.40;99.90
3923;DHT22;1976;51.694;6.256;2023-11-21T12:56:07;13.40;99.90
3923;DHT22;1976;51.694;6.256;2023-11-21T12:58:35;13.50;99.90
3923;DHT22;1976;51.694;6.256;2023-11-21T13:01:01;13.50;99.90
3923;DHT22;1976;51.694;6.256;2023-11-21T13:03:30;13.40;99.90
3923;DHT22;1976;51.694;6.256;2023-11-21T13:05:56;13.50;99.90
3923;DHT22;1976;51.694;6.256;2023-11-21T13:08:25;13.50;99.90
3923;DHT22;1976;51.694;6.256;2023-11-21T13:10:56;13.40;99.90
3923;DHT22;1976;51.694;6.256;2023-11-21T13:13:22;13.40;99.90
3923;DHT22;1976;51.694;6.256;2023-11-21T13:18:16;13.20;99.90
3923;DHT22;1976;51.694;6.256;2023-11-21T13:20:42;13.10;99.90
3923;DHT22;1976;51.694;6.256;2023-11-21T13:23:12;13.10;99.90
3923;DHT22;1976;51.694;6.256;2023-11-21T13:25:38;13.10;99.90
3923;DHT22;1976;51.694;6.256;2023-11-21T13:28:06;13.00;99.90
3923;DHT22;1976;51.694;6.256;2023-11-21T13:30:33;13.00;99.90
3923;DHT22;1976;51.694;6.256;2023-11-21T13:33:06;12.80;99.90
3923;DHT22;1976;51.694;6.256;2023-11-21T13:35:36;12.80;99.90
3923;DHT22;1976;51.694;6.256;2023-11-21T13:38:09;12.70;99.90
3923;DHT22;1976;51.694;6.256;2023-11-21T13:40:35;12.70;99.90
3923;DHT22;1976;51.694;6.256;2023-11-21T13:43:16;12.70;99.90
3923;DHT22;1976;51.694;6.256;2023-11-21T13:45:46;12.50;99.90
3923;DHT22;1976;51.694;6.256;2023-11-21T13:48:13;12.60;99.90
3923;DHT22;1976;51.694;6.256;2023-11-21T13:50:40;12.50;99.90
3923;DHT22;1976;51.694;6.256;2023-11-21T13:53:14;12.50;99.90
3923;DHT22;1976;51.694;6.256;2023-11-21T13:55:49;12.40;99.90
3923;DHT22;1976;51.694;6.256;2023-11-21T13:58:16;12.30;99.90
3923;DHT22;1976;51.694;6.256;2023-11-21T14:00:48;12.20;99.90
3923;DHT22;1976;51.694;6.256;2023-11-21T14:03:21;12.20;99.90
3923;DHT22;1976;51.694;6.256;2023-11-21T14:05:47;12.20;99.90
3923;DHT22;1976;51.694;6.256;2023-11-21T14:08:20;12.30;99.90
3923;DHT22;1976;51.694;6.256;2023-11-21T14:10:50;12.30;99.90
3923;DHT22;1976;51.694;6.256;2023-11-21T14:13:23;12.30;99.90
3923;DHT22;1976;51.694;6.256;2023-11-21T14:15:50;12.30;99.90
3923;DHT22;1976;51.694;6.256;2023-11-21T14:18:19;12.30;99.90
3923;DHT22;1976;51.694;6.256;2023-11-21T14:20:52;12.30;99.90
3923;DHT22;1976;51.694;6.256;2023-11-21T14:23:18;12.30;99.90
3923;DHT22;1976;51.694;6.256;2023-11-21T14:25:44;12.30;99.90
3923;DHT22;1976;51.694;6.256;2023-11-21T14:28:09;12.30;99.90
3923;DHT22;1976;51.694;6.256;2023-11-21T14:30:37;12.20;99.90
3923;DHT22;1976;51.694;6.256;2023-11-21T14:33:05;12.20;99.90
3923;DHT22;1976;51.694;6.256;2023-11-21T14:35:31;12.30;99.90
3923;DHT22;1976;51.694;6.256;2023-11-21T14:37:58;12.30;99.90
3923;DHT22;1976;51.694;6.256;2023-11-21T14:40:25;12.30;99.90
3923;DHT22;1976;51.694;6.256;2023-11-21T14:42:51;12.20;99.90
3923;DHT22;1976;51.694;6.256;2023-11-21T14:45:19;12.30;99.90
3923;DHT22;1976;51.694;6.256;2023-11-21T14:47:46;12.30;99.90
3923;DHT22;1976;51.694;6.256;2023-11-21T14:50:22;12.30;99.90
3923;DHT22;1976;51.694;6.256;2023-11-21T14:53:06;12.30;99.90
3923;DHT22;1976;51.694;6.256;2023-11-21T14:55:33;12.30;99.90
3923;DHT22;1976;51.694;6.256;2023-11-21T14:58:04;12.30;99.90
3923;DHT22;1976;51.694;6.256;2023-11-21T15:00:30;12.30;99.90
3923;DHT22;1976;51.694;6.256;2023-11-21T15:03:16;12.20;99.90
3923;DHT22;1976;51.694;6.256;2023-11-21T15:05:58;12.10;99.90
3923;DHT22;1976;51.694;6.256;2023-11-21T15:08:25;12.00;99.90
3923;DHT22;1976;51.694;6.256;2023-11-21T15:10:57;12.00;99.90
3923;DHT22;1976;51.694;6.256;2023-11-21T15:13:24;11.90;99.90
3923;DHT22;1976;51.694;6.256;2023-11-21T15:15:52;11.90;99.90
3923;DHT22;1976;51.694;6.256;2023-11-21T15:18:20;11.80;99.90
3923;DHT22;1976;51.694;6.256;2023-11-21T15:20:46;11.70;99.90
3923;DHT22;1976;51.694;6.256;2023-11-21T15:23:12;11.70;99.90
3923;DHT22;1976;51.694;6.256;2023-11-21T15:25:38;11.70;99.90
3923;DHT22;1976;51.694;6.256;2023-11-21T15:28:04;11.70;99.90
3923;DHT22;1976;51.694;6.256;2023-11-21T15:30:31;11.70;99.90
3923;DHT22;1976;51.694;6.256;2023-11-21T15:32:58;11.70;99.90
3923;DHT22;1976;51.694;6.256;2023-11-21T15:35:24;11.60;99.90
3923;DHT22;1976;51.694;6.256;2023-11-21T15:37:49;11.60;99.90
3923;DHT22;1976;51.694;6.256;2023-11-21T15:40:15;11.50;99.90
3923;DHT22;1976;51.694;6.256;2023-11-21T15:42:42;11.50;99.90
3923;DHT22;1976;51.694;6.256;2023-11-21T15:45:08;11.40;99.90
3923;DHT22;1976;51.694;6.256;2023-11-21T15:47:34;11.30;99.90
3923;DHT22;1976;51.694;6.256;2023-11-21T15:50:00;11.30;99.90
3923;DHT22;1976;51.694;6.256;2023-11-21T15:52:26;11.30;99.90
3923;DHT22;1976;51.694;6.256;2023-11-21T15:54:54;11.30;99.90
3923;DHT22;1976;51.694;6.256;2023-11-21T15:57:20;11.30;99.90
3923;DHT22;1976;51.694;6.256;2023-11-21T15:59:47;11.20;99.90
3923;DHT22;1976;51.694;6.256;2023-11-21T16:02:13;8.50;99.90
3923;DHT22;1976;51.694;6.256;2023-11-21T16:04:41;11.10;99.90
3923;DHT22;1976;51.694;6.256;2023-11-21T16:07:08;11.10;99.90
3923;DHT22;1976;51.694;6.256;2023-11-21T16:09:35;10.90;99.90
3923;DHT22;1976;51.694;6.256;2023-11-21T16:12:05;10.90;99.90
3923;DHT22;1976;51.694;6.256;2023-11-21T16:14:32;11.00;99.90
3923;DHT22;1976;51.694;6.256;2023-11-21T16:17:07;11.10;99.90
3923;DHT22;1976;51.694;6.256;2023-11-21T16:19:34;11.00;99.90
3923;DHT22;1976;51.694;6.256;2023-11-21T16:21:59;11.20;99.90
3923;DHT22;1976;51.694;6.256;2023-11-21T16:24:26;11.20;99.90
3923;DHT22;1976;51.694;6.256;2023-11-21T16:27:10;11.20;99.90
3923;DHT22;1976;51.694;6.256;2023-11-21T16:29:36;11.10;99.90
3923;DHT22;1976;51.694;6.256;2023-11-21T16:32:01;10.90;99.90
3923;DHT22;1976;51.694;6.256;2023-11-21T16:34:27;10.90;99.90
3923;DHT22;1976;51.694;6.256;2023-11-21T16:36:54;10.70;99.90
3923;DHT22;1976;51.694;6.256;2023-11-21T16:39:21;10.60;99.90
3923;DHT22;1976;51.694;6.256;2023-11-21T16:41:47;10.60;99.90
3923;DHT22;1976;51.694;6.256;2023-11-21T16:44:14;10.50;99.90
3923;DHT22;1976;51.694;6.256;2023-11-21T16:46:44;10.50;99.90